Aviation Digital Data Service (ADDS)

Output produced by METARs form (0343 UTC 23 November 2017)
found at http://www.aviationweather.gov/adds/metars/
 
GGOV 222200Z 27003KT CAVOK 28/18 Q1011 NOSIG
TAF GGOV 222300Z 2300/2324 33005KT CAVOK